LSME METAR and TAF | Updated Today

LSME METAR

Emmen Air Base

Observation time: 24 min. ago

LSME 051950Z AUTO VRB02KT 8000NDV -RA SCT013 BKN016 OVC026 02/02 Q1034 RMK

Need help? Read our tutorial on how to read METARs or read the parsed version below.

Emmen Air Base (LSME) METAR

  • Weather conditions on Sun, 05 Feb 2023 19:50:00 +0000 (24 min. ago):
  • Present conditions: Light rain
  • Clouds: Scattered at 396 meters; broken sky at 488 meters; overcast sky at 792 meters
  • Visibility:
  • Wind: Variable at 2 knots
  • Temperature: 2 celsius
  • Dew point: 2 celsius
  • Pressure: 1034 millibars
  • Remarks: None


Useful to know...